createdAt,value
2018-10-19T00:01:01.299Z,48.80
2018-10-19T00:03:35.885Z,46.05
2018-10-19T00:06:09.891Z,49.45
2018-10-19T00:08:43.444Z,49.13
2018-10-19T00:11:15.984Z,48.42
2018-10-19T00:13:48.645Z,47.98
2018-10-19T00:16:20.908Z,45.70
2018-10-19T00:18:53.839Z,47.75
2018-10-19T00:21:26.362Z,48.08
2018-10-19T00:24:00.976Z,48.50
2018-10-19T00:26:34.681Z,49.15
2018-10-19T00:29:07.655Z,49.23
2018-10-19T00:31:40.270Z,45.58
2018-10-19T00:34:13.176Z,46.73
2018-10-19T00:36:46.054Z,50.45
2018-10-19T00:39:19.400Z,48.50
2018-10-19T00:41:52.610Z,46.92
2018-10-19T00:44:25.980Z,46.55
2018-10-19T00:46:58.830Z,48.23
2018-10-19T00:49:31.889Z,48.15
2018-10-19T00:52:05.789Z,51.70
2018-10-19T00:54:38.692Z,48.17
2018-10-19T00:57:11.888Z,55.90
2018-10-19T00:59:45.010Z,52.13
2018-10-19T01:02:17.857Z,53.75
2018-10-19T01:04:50.712Z,56.05
2018-10-19T01:07:23.618Z,51.85
2018-10-19T01:09:56.766Z,53.83
2018-10-19T01:12:29.899Z,51.65
2018-10-19T01:15:00.686Z,52.67
2018-10-19T01:17:31.512Z,52.08
2018-10-19T01:20:02.437Z,51.75
2018-10-19T01:22:33.934Z,54.88
2018-10-19T01:25:13.911Z,52.45
2018-10-19T01:27:46.986Z,51.70
2018-10-19T01:30:19.912Z,52.13
2018-10-19T01:32:52.656Z,51.53
2018-10-19T01:35:25.573Z,53.28
2018-10-19T01:37:59.003Z,54.08
2018-10-19T01:40:35.726Z,55.65
2018-10-19T01:43:08.654Z,55.48
2018-10-19T01:45:45.077Z,58.35
2018-10-19T01:48:20.981Z,56.10
2018-10-19T01:50:54.426Z,53.95
2018-10-19T01:53:27.514Z,54.95
2018-10-19T01:56:02.861Z,55.40
2018-10-19T01:58:36.945Z,54.27
2018-10-19T02:01:09.532Z,54.75
2018-10-19T02:03:41.671Z,57.75
2018-10-19T02:06:21.674Z,51.90
2018-10-19T02:08:56.225Z,54.23
2018-10-19T02:11:30.225Z,52.75
2018-10-19T02:14:03.537Z,55.45
2018-10-19T02:16:37.246Z,53.13
2018-10-19T02:19:13.720Z,56.08
2018-10-19T02:21:47.475Z,57.65
2018-10-19T02:24:23.853Z,52.98
2018-10-19T02:26:56.685Z,57.13
2018-10-19T02:29:29.992Z,54.45
2018-10-19T02:32:04.223Z,58.95
2018-10-19T02:34:37.976Z,55.25
2018-10-19T02:37:12.217Z,55.95
2018-10-19T02:39:45.421Z,59.18
2018-10-19T02:42:18.060Z,58.02
2018-10-19T02:44:50.495Z,56.45
2018-10-19T02:47:22.646Z,56.65
2018-10-19T02:49:55.256Z,61.13
2018-10-19T02:52:28.033Z,57.90
2018-10-19T02:55:00.787Z,58.63
2018-10-19T02:57:33.539Z,59.88
2018-10-19T03:00:07.189Z,57.65
2018-10-19T03:02:41.004Z,56.63
2018-10-19T03:05:13.668Z,57.58
2018-10-19T03:07:48.095Z,62.30
2018-10-19T03:10:20.854Z,59.18
2018-10-19T03:12:54.933Z,59.23
2018-10-19T03:15:27.816Z,61.30
2018-10-19T03:18:01.277Z,61.00
2018-10-19T03:20:34.582Z,60.98
2018-10-19T03:23:06.953Z,60.78
2018-10-19T03:25:40.718Z,61.83
2018-10-19T03:28:13.128Z,61.60
2018-10-19T03:30:47.078Z,57.15
2018-10-19T03:33:19.803Z,62.03
2018-10-19T03:35:54.071Z,61.92
2018-10-19T03:38:27.009Z,57.40
2018-10-19T03:40:59.696Z,60.30
2018-10-19T03:43:32.708Z,59.18
2018-10-19T03:46:05.691Z,59.55
2018-10-19T03:48:40.430Z,59.60
2018-10-19T03:51:13.256Z,58.33
2018-10-19T03:53:47.169Z,61.00
2018-10-19T03:56:21.478Z,60.52
2018-10-19T03:58:55.481Z,58.20
2018-10-19T04:01:29.532Z,60.63
2018-10-19T04:04:04.832Z,61.85
2018-10-19T04:06:38.153Z,56.28
2018-10-19T04:09:15.499Z,59.10
2018-10-19T04:11:48.204Z,56.58
2018-10-19T04:14:20.803Z,57.48
2018-10-19T04:16:51.629Z,58.85
2018-10-19T04:19:22.163Z,57.55
2018-10-19T04:21:52.951Z,59.20
2018-10-19T04:24:26.022Z,53.65
2018-10-19T04:26:59.890Z,58.65
2018-10-19T04:29:34.030Z,57.15
2018-10-19T04:32:08.479Z,58.90
2018-10-19T04:34:43.062Z,56.23
2018-10-19T04:37:16.173Z,56.50
2018-10-19T04:39:48.961Z,55.45
2018-10-19T04:42:21.026Z,58.50
2018-10-19T04:44:53.509Z,56.28
2018-10-19T04:47:27.477Z,56.40
2018-10-19T04:50:00.882Z,56.53
2018-10-19T04:52:34.268Z,56.25
2018-10-19T04:55:06.868Z,55.17
2018-10-19T04:57:39.594Z,55.45
2018-10-19T05:00:11.779Z,58.95
2018-10-19T05:02:46.048Z,56.83
2018-10-19T05:05:19.003Z,55.55
2018-10-19T05:07:52.238Z,55.80
2018-10-19T05:10:26.220Z,56.37
2018-10-19T05:12:58.897Z,54.38
2018-10-19T05:15:32.671Z,55.70
2018-10-19T05:18:06.482Z,57.53
2018-10-19T05:20:39.767Z,56.08
2018-10-19T05:23:13.899Z,60.63
2018-10-19T05:25:47.943Z,55.78
2018-10-19T05:28:21.727Z,56.45
2018-10-19T05:30:54.819Z,56.42
2018-10-19T05:33:28.622Z,57.20
2018-10-19T05:36:00.319Z,52.43
2018-10-19T05:38:33.359Z,56.75
2018-10-19T05:41:06.996Z,55.85
2018-10-19T05:43:38.340Z,56.08
2018-10-19T05:46:11.293Z,55.60
2018-10-19T05:48:44.786Z,55.20
2018-10-19T05:51:17.872Z,57.05
2018-10-19T05:53:48.793Z,56.88
2018-10-19T05:56:21.751Z,54.70
2018-10-19T05:58:52.246Z,55.70
2018-10-19T06:01:25.196Z,54.77
2018-10-19T06:03:57.110Z,57.13
2018-10-19T06:06:28.850Z,54.48
2018-10-19T06:09:00.340Z,54.65
2018-10-19T06:11:30.607Z,56.30
2018-10-19T06:14:04.396Z,58.65
2018-10-19T06:16:35.036Z,57.50
2018-10-19T06:19:08.417Z,57.58
2018-10-19T06:21:40.186Z,54.50
2018-10-19T06:24:13.558Z,55.92
2018-10-19T06:26:46.312Z,52.55
2018-10-19T06:29:18.348Z,54.05
2018-10-19T06:31:51.505Z,54.80
2018-10-19T06:34:23.252Z,55.00
2018-10-19T06:36:55.383Z,53.95
2018-10-19T06:39:27.549Z,55.75
2018-10-19T06:41:57.672Z,56.00
2018-10-19T06:44:28.151Z,56.23
2018-10-19T06:46:58.957Z,57.23
2018-10-19T06:49:29.795Z,51.75
2018-10-19T06:52:00.798Z,58.68
2018-10-19T06:54:31.379Z,54.58
2018-10-19T06:57:01.709Z,54.55
2018-10-19T06:59:32.794Z,52.27
2018-10-19T07:02:03.348Z,55.58
2018-10-19T07:04:34.259Z,53.05
2018-10-19T07:07:06.147Z,56.85
2018-10-19T07:09:37.717Z,53.05
2018-10-19T07:12:09.353Z,55.08
2018-10-19T07:14:40.159Z,54.23
2018-10-19T07:17:12.966Z,56.20
2018-10-19T07:19:45.500Z,54.38
2018-10-19T07:22:15.816Z,56.85
2018-10-19T07:24:46.519Z,53.70
2018-10-19T07:27:17.305Z,52.88
2018-10-19T07:29:48.222Z,55.92
2018-10-19T07:32:19.598Z,56.15
2018-10-19T07:34:50.949Z,53.00
2018-10-19T07:37:21.537Z,58.98
2018-10-19T07:39:52.748Z,55.40
2018-10-19T07:42:25.157Z,53.40
2018-10-19T07:44:56.166Z,55.43
2018-10-19T07:47:27.503Z,52.98
2018-10-19T07:49:58.948Z,52.90
2018-10-19T07:52:30.582Z,50.85
2018-10-19T07:55:02.518Z,50.43
2018-10-19T07:57:32.996Z,50.28
2018-10-19T08:00:04.124Z,51.00
2018-10-19T08:02:35.106Z,50.78
2018-10-19T08:05:05.897Z,51.35
2018-10-19T08:07:37.216Z,50.63
2018-10-19T08:10:09.317Z,47.70
2018-10-19T08:12:39.994Z,50.58
2018-10-19T08:15:10.990Z,47.55
2018-10-19T08:17:41.560Z,46.20
2018-10-19T08:20:13.086Z,49.73
2018-10-19T08:22:44.914Z,48.73
2018-10-19T08:25:16.475Z,45.55
2018-10-19T08:27:48.077Z,45.50
2018-10-19T08:30:21.045Z,43.50
2018-10-19T08:32:52.184Z,44.40
2018-10-19T08:35:24.153Z,42.60
2018-10-19T08:37:55.016Z,43.00
2018-10-19T08:40:25.956Z,41.73
2018-10-19T08:43:02.553Z,41.33
2018-10-19T08:45:34.433Z,40.90
2018-10-19T08:48:07.164Z,43.53
2018-10-19T08:50:38.116Z,44.23
2018-10-19T08:53:17.784Z,44.30
2018-10-19T08:55:48.429Z,44.27
2018-10-19T08:58:19.697Z,40.70
2018-10-19T09:00:50.288Z,42.97
2018-10-19T09:03:22.369Z,44.53
2018-10-19T09:05:53.908Z,43.93
2018-10-19T09:08:25.364Z,42.80
2018-10-19T09:10:57.447Z,42.03
2018-10-19T09:13:28.832Z,44.93
2018-10-19T09:16:00.178Z,42.80
2018-10-19T09:18:30.720Z,43.57
2018-10-19T09:21:02.207Z,44.30
2018-10-19T09:23:33.430Z,47.07
2018-10-19T09:26:04.634Z,48.43
2018-10-19T09:28:35.636Z,43.50
2018-10-19T09:31:08.962Z,47.57
2018-10-19T09:33:41.058Z,43.23
2018-10-19T09:36:12.633Z,42.90
2018-10-19T09:38:45.434Z,42.47
2018-10-19T09:41:18.885Z,43.27
2018-10-19T09:43:50.980Z,44.47
2018-10-19T09:46:22.713Z,42.30
2018-10-19T09:48:53.623Z,42.23
2018-10-19T09:51:26.211Z,45.80
2018-10-19T09:53:58.833Z,46.93
2018-10-19T09:56:29.875Z,44.53
2018-10-19T09:59:17.167Z,44.07
2018-10-19T10:01:50.230Z,43.57
2018-10-19T10:04:23.678Z,44.57
2018-10-19T10:06:56.193Z,42.70
2018-10-19T10:09:28.069Z,45.23
2018-10-19T10:12:00.863Z,45.53
2018-10-19T10:14:36.780Z,44.20
2018-10-19T10:17:13.703Z,45.37
2018-10-19T10:19:45.585Z,43.90
2018-10-19T10:22:17.005Z,42.80
2018-10-19T10:24:49.233Z,47.37
2018-10-19T10:27:20.062Z,46.10
2018-10-19T10:29:54.483Z,45.07
2018-10-19T10:32:26.641Z,50.30
2018-10-19T10:34:57.436Z,44.70
2018-10-19T10:37:29.630Z,41.13
2018-10-19T10:40:01.541Z,44.20
2018-10-19T10:42:32.145Z,41.97
2018-10-19T10:45:04.910Z,44.37
2018-10-19T10:47:36.869Z,43.00
2018-10-19T10:50:08.664Z,42.93
2018-10-19T10:52:41.834Z,42.40
2018-10-19T10:55:13.969Z,42.07
2018-10-19T10:57:47.470Z,42.20
2018-10-19T11:00:20.432Z,43.13
2018-10-19T11:02:52.239Z,41.27
2018-10-19T11:05:25.548Z,43.10
2018-10-19T11:08:01.938Z,45.00
2018-10-19T11:10:33.245Z,42.33
2018-10-19T11:13:04.959Z,41.17
2018-10-19T11:15:36.258Z,47.03
2018-10-19T11:18:10.332Z,45.30
2018-10-19T11:20:42.191Z,42.30
2018-10-19T11:23:14.387Z,44.00
2018-10-19T11:25:47.389Z,44.80
2018-10-19T11:28:18.527Z,44.43
2018-10-19T11:30:50.257Z,47.60
2018-10-19T11:33:21.279Z,45.90
2018-10-19T11:35:54.067Z,48.30
2018-10-19T11:38:26.447Z,47.13
2018-10-19T11:40:59.188Z,44.63
2018-10-19T11:43:31.228Z,46.20
2018-10-19T11:46:04.911Z,54.00
2018-10-19T11:48:36.343Z,49.70
2018-10-19T11:51:08.359Z,53.10
2018-10-19T11:53:40.345Z,52.27
2018-10-19T11:56:16.707Z,51.07
2018-10-19T11:58:48.749Z,48.40
2018-10-19T12:01:20.681Z,46.60
2018-10-19T12:03:54.456Z,47.37
2018-10-19T12:06:26.458Z,51.50
2018-10-19T12:08:59.797Z,53.00
2018-10-19T12:11:32.403Z,49.93
2018-10-19T12:14:04.892Z,49.60
2018-10-19T12:16:38.163Z,50.30
2018-10-19T12:19:11.398Z,50.80
2018-10-19T12:21:43.816Z,53.10
2018-10-19T12:24:15.494Z,50.67
2018-10-19T12:26:47.496Z,51.27
2018-10-19T12:29:20.708Z,47.97
2018-10-19T12:31:52.738Z,47.67
2018-10-19T12:34:25.436Z,52.67
2018-10-19T12:36:56.464Z,48.10
2018-10-19T12:39:30.222Z,56.43
2018-10-19T12:42:00.860Z,53.50
2018-10-19T12:44:32.772Z,50.67
2018-10-19T12:47:14.148Z,55.00
2018-10-19T12:49:46.418Z,51.63
2018-10-19T12:52:18.031Z,51.90
2018-10-19T12:54:49.806Z,49.53
2018-10-19T12:57:21.436Z,49.50
2018-10-19T12:59:53.097Z,49.17
2018-10-19T13:02:25.061Z,53.80
2018-10-19T13:04:57.293Z,52.50
2018-10-19T13:07:27.860Z,52.87
2018-10-19T13:09:59.941Z,57.73
2018-10-19T13:12:30.661Z,55.30
2018-10-19T13:15:05.720Z,55.60
2018-10-19T13:17:38.882Z,52.27
2018-10-19T13:20:12.171Z,52.20
2018-10-19T13:22:45.554Z,52.63
2018-10-19T13:25:16.346Z,49.40
2018-10-19T13:27:48.246Z,46.27
2018-10-19T13:30:22.070Z,49.17
2018-10-19T13:32:53.240Z,50.60
2018-10-19T13:35:24.902Z,54.13
2018-10-19T13:37:55.518Z,50.53
2018-10-19T13:40:28.101Z,49.67
2018-10-19T13:42:59.832Z,48.87
2018-10-19T13:45:32.311Z,50.63
2018-10-19T13:48:05.092Z,48.90
2018-10-19T13:50:37.080Z,49.77
2018-10-19T13:53:08.712Z,48.40
2018-10-19T13:55:40.955Z,50.70
2018-10-19T13:58:14.350Z,48.10
2018-10-19T14:00:45.956Z,47.80
2018-10-19T14:03:16.252Z,45.20
2018-10-19T14:05:47.242Z,47.07
2018-10-19T14:08:18.984Z,50.97
2018-10-19T14:10:51.153Z,47.53
2018-10-19T14:13:23.409Z,47.60
2018-10-19T14:15:57.112Z,46.43
2018-10-19T14:18:31.392Z,50.60
2018-10-19T14:21:03.737Z,48.97
2018-10-19T14:23:37.674Z,45.77
2018-10-19T14:26:10.015Z,45.47
2018-10-19T14:28:43.142Z,45.43
2018-10-19T14:31:14.559Z,46.97
2018-10-19T14:33:46.241Z,49.77
2018-10-19T14:36:18.289Z,45.70
2018-10-19T14:38:50.810Z,46.87
2018-10-19T14:41:22.317Z,49.17
2018-10-19T14:43:55.824Z,49.03
2018-10-19T14:46:28.117Z,43.00
2018-10-19T14:49:00.616Z,45.80
2018-10-19T14:51:35.054Z,49.93
2018-10-19T14:54:07.330Z,48.47
2018-10-19T14:56:39.954Z,47.20
2018-10-19T14:59:12.465Z,43.17
2018-10-19T15:01:46.260Z,44.10
2018-10-19T15:04:18.704Z,44.77
2018-10-19T15:06:52.431Z,47.00
2018-10-19T15:09:25.100Z,39.60
2018-10-19T15:11:57.181Z,44.47
2018-10-19T15:14:29.620Z,44.40
2018-10-19T15:17:02.538Z,42.30
2018-10-19T15:19:35.070Z,42.43
2018-10-19T15:22:07.909Z,46.90
2018-10-19T15:24:42.262Z,43.93
2018-10-19T15:27:15.862Z,44.13
2018-10-19T15:29:48.663Z,41.30
2018-10-19T15:32:21.286Z,46.20
2018-10-19T15:34:55.110Z,46.77
2018-10-19T15:37:28.964Z,45.20
2018-10-19T15:40:03.711Z,44.30
2018-10-19T15:42:37.301Z,39.80
2018-10-19T15:45:12.554Z,45.60
2018-10-19T15:47:46.589Z,44.00
2018-10-19T15:50:19.549Z,41.97
2018-10-19T15:52:52.396Z,42.13
2018-10-19T15:55:25.954Z,42.47
2018-10-19T15:57:58.566Z,43.30
2018-10-19T16:00:31.674Z,42.00
2018-10-19T16:03:04.782Z,42.27
2018-10-19T16:05:37.596Z,43.37
2018-10-19T16:08:09.751Z,40.17
2018-10-19T16:10:43.748Z,42.70
2018-10-19T16:13:17.265Z,45.10
2018-10-19T16:16:05.624Z,40.73
2018-10-19T16:18:39.230Z,40.00
2018-10-19T16:21:12.926Z,40.20
2018-10-19T16:23:47.047Z,40.43
2018-10-19T16:26:19.807Z,40.83
2018-10-19T16:28:52.391Z,39.30
2018-10-19T16:31:25.827Z,40.17
2018-10-19T16:33:58.800Z,38.93
2018-10-19T16:36:33.438Z,40.43
2018-10-19T16:39:07.197Z,39.50
2018-10-19T16:41:41.326Z,43.97
2018-10-19T16:44:15.685Z,43.60
2018-10-19T16:46:48.850Z,43.00
2018-10-19T16:49:21.991Z,42.43
2018-10-19T16:51:55.320Z,44.80
2018-10-19T16:54:27.983Z,43.83
2018-10-19T16:57:01.158Z,41.37
2018-10-19T16:59:35.073Z,44.97
2018-10-19T17:02:07.587Z,45.37
2018-10-19T17:04:40.079Z,41.40
2018-10-19T17:07:12.578Z,45.07
2018-10-19T17:09:45.715Z,42.50
2018-10-19T17:12:18.242Z,41.13
2018-10-19T17:14:51.780Z,44.90
2018-10-19T17:17:24.206Z,43.95
2018-10-19T17:19:56.581Z,45.88
2018-10-19T17:22:28.782Z,44.93
2018-10-19T17:25:02.115Z,43.92
2018-10-19T17:27:34.114Z,43.00
2018-10-19T17:30:05.767Z,42.48
2018-10-19T17:32:41.034Z,42.30
2018-10-19T17:35:13.461Z,41.28
2018-10-19T17:37:46.224Z,43.15
2018-10-19T17:40:19.571Z,40.65
2018-10-19T17:42:54.438Z,41.83
2018-10-19T17:45:28.198Z,43.25
2018-10-19T17:48:02.776Z,42.45
2018-10-19T17:50:35.646Z,44.88
2018-10-19T17:53:16.958Z,44.58
2018-10-19T17:55:50.418Z,44.23
2018-10-19T17:58:23.513Z,45.85
2018-10-19T18:00:56.634Z,43.50
2018-10-19T18:03:29.461Z,42.78
2018-10-19T18:06:05.324Z,45.80
2018-10-19T18:08:38.352Z,48.13
2018-10-19T18:11:12.555Z,46.63
2018-10-19T18:13:46.181Z,43.75
2018-10-19T18:16:19.327Z,44.93
2018-10-19T18:18:52.678Z,46.45
2018-10-19T18:21:27.113Z,49.85
2018-10-19T18:24:00.080Z,48.87
2018-10-19T18:26:34.545Z,47.13
2018-10-19T18:29:07.238Z,46.83
2018-10-19T18:31:40.369Z,49.15
2018-10-19T18:34:13.268Z,46.18
2018-10-19T18:36:47.353Z,49.05
2018-10-19T18:39:20.064Z,46.45
2018-10-19T18:41:52.779Z,46.33
2018-10-19T18:44:25.673Z,47.95
2018-10-19T18:46:58.656Z,51.77
2018-10-19T18:49:32.402Z,49.13
2018-10-19T18:52:05.289Z,51.58
2018-10-19T18:54:38.153Z,52.90
2018-10-19T18:57:11.060Z,53.33
2018-10-19T18:59:42.563Z,49.00
2018-10-19T19:02:15.388Z,49.95
2018-10-19T19:04:48.194Z,51.95
2018-10-19T19:07:21.197Z,50.33
2018-10-19T19:09:59.002Z,53.73
2018-10-19T19:12:34.048Z,50.55
2018-10-19T19:15:08.581Z,55.58
2018-10-19T19:17:42.006Z,52.58
2018-10-19T19:20:19.225Z,55.23
2018-10-19T19:22:53.983Z,51.23
2018-10-19T19:25:31.250Z,50.45
2018-10-19T19:28:07.644Z,49.77
2018-10-19T19:30:41.699Z,52.03
2018-10-19T19:33:18.914Z,51.45
2018-10-19T19:35:51.720Z,49.85
2018-10-19T19:38:24.775Z,50.10
2018-10-19T19:41:01.653Z,54.75
2018-10-19T19:43:34.610Z,50.80
2018-10-19T19:46:07.763Z,50.95
2018-10-19T19:48:44.944Z,48.80
2018-10-19T19:51:18.388Z,49.03
2018-10-19T19:53:51.126Z,48.68
2018-10-19T19:56:23.961Z,49.50
2018-10-19T19:58:58.016Z,52.75
2018-10-19T20:01:31.894Z,53.15
2018-10-19T20:04:06.068Z,53.08
2018-10-19T20:06:39.228Z,54.00
2018-10-19T20:09:12.543Z,55.43
2018-10-19T20:11:46.359Z,53.60
2018-10-19T20:14:18.124Z,52.53
2018-10-19T20:16:50.910Z,48.80
2018-10-19T20:19:23.630Z,51.35
2018-10-19T20:21:56.039Z,49.25
2018-10-19T20:24:28.944Z,47.43
2018-10-19T20:27:01.947Z,46.80
2018-10-19T20:29:34.803Z,49.05
2018-10-19T20:32:08.107Z,50.03
2018-10-19T20:34:40.991Z,49.88
2018-10-19T20:37:14.160Z,46.25
2018-10-19T20:39:47.681Z,50.80
2018-10-19T20:42:20.419Z,49.93
2018-10-19T20:44:52.872Z,51.63
2018-10-19T20:47:25.185Z,51.10
2018-10-19T20:49:57.569Z,52.30
2018-10-19T20:52:31.360Z,55.30
2018-10-19T20:55:03.746Z,51.30
2018-10-19T20:57:36.299Z,49.48
2018-10-19T21:00:09.886Z,50.33
2018-10-19T21:02:41.851Z,47.43
2018-10-19T21:05:15.032Z,51.25
2018-10-19T21:07:47.868Z,48.25
2018-10-19T21:10:21.190Z,51.10
2018-10-19T21:12:53.992Z,49.45
2018-10-19T21:15:26.943Z,48.48
2018-10-19T21:18:00.942Z,52.35
2018-10-19T21:20:34.386Z,52.05
2018-10-19T21:23:08.180Z,50.70
2018-10-19T21:25:42.494Z,48.95
2018-10-19T21:28:15.453Z,50.25
2018-10-19T21:30:48.492Z,51.08
2018-10-19T21:33:22.224Z,54.98
2018-10-19T21:35:55.112Z,51.68
2018-10-19T21:38:26.217Z,55.25
2018-10-19T21:41:01.337Z,55.67
2018-10-19T21:43:34.602Z,55.35
2018-10-19T21:46:08.111Z,56.35
2018-10-19T21:48:41.771Z,52.45
2018-10-19T21:51:14.688Z,55.50
2018-10-19T21:53:47.477Z,55.80
2018-10-19T21:56:19.678Z,56.05
2018-10-19T21:58:52.803Z,58.80
2018-10-19T22:01:25.556Z,56.13
2018-10-19T22:03:59.596Z,54.42
2018-10-19T22:06:32.371Z,57.62
2018-10-19T22:09:06.837Z,59.38
2018-10-19T22:11:40.193Z,56.73
2018-10-19T22:14:13.632Z,54.88
2018-10-19T22:16:46.595Z,58.98
2018-10-19T22:19:19.406Z,56.45
2018-10-19T22:21:52.085Z,54.77
2018-10-19T22:24:25.860Z,55.20
2018-10-19T22:26:58.754Z,56.50
2018-10-19T22:29:32.506Z,60.23
2018-10-19T22:32:01.512Z,58.30
2018-10-19T22:34:30.275Z,57.50
2018-10-19T22:36:59.092Z,58.50
2018-10-19T22:39:32.863Z,56.98
2018-10-19T22:42:05.860Z,55.88
2018-10-19T22:44:35.261Z,55.83
2018-10-19T22:47:04.393Z,56.75
2018-10-19T22:49:33.398Z,55.43
2018-10-19T22:52:02.343Z,56.77
2018-10-19T22:54:31.261Z,57.43
2018-10-19T22:57:00.192Z,56.60
2018-10-19T22:59:29.162Z,56.08
2018-10-19T23:01:58.319Z,54.15
2018-10-19T23:04:27.153Z,57.25
2018-10-19T23:06:56.097Z,55.30
2018-10-19T23:09:25.040Z,53.98
2018-10-19T23:11:53.973Z,56.95
2018-10-19T23:14:22.866Z,57.43
2018-10-19T23:16:51.720Z,59.90
2018-10-19T23:19:20.577Z,60.63
2018-10-19T23:21:49.721Z,59.70
2018-10-19T23:24:18.625Z,59.18
2018-10-19T23:26:47.594Z,59.85
2018-10-19T23:29:16.688Z,60.38
2018-10-19T23:31:45.621Z,57.43
2018-10-19T23:34:20.077Z,56.15
2018-10-19T23:36:49.112Z,56.45
2018-10-19T23:39:18.345Z,65.40
2018-10-19T23:41:47.196Z,62.23
2018-10-19T23:44:15.887Z,66.00
2018-10-19T23:46:44.915Z,64.62
2018-10-19T23:49:13.890Z,64.92
2018-10-19T23:51:42.804Z,60.70
2018-10-19T23:54:11.745Z,61.90
2018-10-19T23:56:40.566Z,58.13
2018-10-19T23:59:09.766Z,56.85
